Marion, IN

5:01 PM EDT on July 26, 2016 (GMT -0400)
Marion Municipal | | Change Station

Elev 856 ft 40.49 °N, 85.68 °W | Updated 6 minutes ago

Haze
Haze
84 °F
Feels Like 85 °F
N
0
Wind Variable Wind from North

Today
High -- | Low -- °F
--% Chance of Precip.
Yesterday
High -- | Low -- °F
Precip. -- in
Pressure 30.02 in
Visibility 5.0 miles
Clouds Clear
Heat Index 85 °F
Dew Point 63 °F
Humidity 50%
Rainfall 0.00 in
Snow Depth Not available.
6:34 AM 9:03 PM
Waning Gibbous, 51% visible
METAR KMZZ 262055Z AUTO 00000KT 5SM HZ CLR 29/17 A3002 RMK AO2 T02870172
Pressure 30.02 in
Visibility 5.0 miles
Clouds Clear
Heat Index 85 °F
Dew Point 63 °F
Humidity 50%
Rainfall 0.00 in
Snow Depth Not available.
6:34 AM 9:03 PM
Waning Gibbous, 51% visible
METAR KMZZ 262055Z AUTO 00000KT 5SM HZ CLR 29/17 A3002 RMK AO2 T02870172

10-Day Weather Forecast

Almanac

Astronomy

Jul. 26, 2016 Rise Set
Actual Time
Civil Twilight
Nautical Twilight
Astronomical Twilight
Moon
Length of Visible Light
Length of Day
Tomorrow will be .
, % of the Moon is Illuminated

Today's Extremes

State Highs State Lows

Community

WunderPhotos

Upload Photos

1,927,688 photos uploaded!

WunderBlog® & News

Nearby

Air Quality

  Air Quality AQ Index Pollutant
Not available.

Snow Depth

Station Depth Elevation

Earthquake Activity

City Distance Mag. Time & Date
Minimum magnitude displayed is 2.5.

Coastal Water Temperatures

Place Temperature

Stations

Nearby Weather Stations

Station Location Temp. Windchill Dew Point Humidity Wind Precip. Elev Updated Type
                   

Watches & Warnings

There are currently no watches in effect.